Terminal Aerodrome Forecast
Issued by NWS

Home | Current Version | Previous Version | Text Only | Print | Product List | Glossary On
Versions: 1 2 3 4 5 6 7 8 9 10 11 12 13 14 15
000
FTUS44 KMAF 260500
TAFCNM
TAF
KCNM 260524Z 2606/2706 13011KT P6SM SCT200
     FM261700 25015G25KT P6SM BKN120
     FM270000 28011KT P6SM BKN080=

USA.gov is the U.S. government's official web portal to all federal, state and local government web resources and services.